createdAt,value
2022-11-19T00:01:06.606Z,-1.37
2022-11-19T00:03:35.141Z,-1.28
2022-11-19T00:06:22.404Z,-1.22
2022-11-19T00:08:49.435Z,-1.28
2022-11-19T00:11:41.225Z,-1.23
2022-11-19T00:14:13.627Z,-1.26
2022-11-19T00:16:41.066Z,-1.35
2022-11-19T00:19:07.884Z,-1.59
2022-11-19T00:21:34.407Z,-1.46
2022-11-19T00:24:00.846Z,-1.45
2022-11-19T00:26:27.397Z,-1.41
2022-11-19T00:28:54.741Z,-1.49
2022-11-19T00:31:21.180Z,-1.42
2022-11-19T00:33:49.435Z,-1.48
2022-11-19T00:36:17.038Z,-1.45
2022-11-19T00:38:43.754Z,-1.68
2022-11-19T00:41:10.988Z,-1.49
2022-11-19T00:43:50.136Z,-1.70
2022-11-19T00:46:24.842Z,-1.59
2022-11-19T00:48:53.724Z,-1.72
2022-11-19T00:51:21.826Z,-1.75
2022-11-19T00:53:48.344Z,-1.65
2022-11-19T00:56:17.559Z,-1.60
2022-11-19T00:58:44.172Z,-1.59
2022-11-19T01:01:11.632Z,-1.77
2022-11-19T01:03:39.586Z,-1.66
2022-11-19T01:06:06.587Z,-1.67
2022-11-19T01:08:32.953Z,-1.71
2022-11-19T01:11:13.672Z,-1.81
2022-11-19T01:13:40.217Z,-1.75
2022-11-19T01:16:12.708Z,-1.64
2022-11-19T01:18:40.833Z,-1.74
2022-11-19T01:21:08.766Z,-1.76
2022-11-19T01:23:35.248Z,-1.81
2022-11-19T01:26:02.261Z,-1.66
2022-11-19T01:28:28.805Z,-1.64
2022-11-19T01:30:55.380Z,-1.76
2022-11-19T01:33:22.602Z,-1.73
2022-11-19T01:36:00.494Z,-1.79
2022-11-19T01:38:27.472Z,-1.75
2022-11-19T01:40:54.826Z,-1.81
2022-11-19T01:43:38.943Z,-1.76
2022-11-19T01:46:05.398Z,-1.85
2022-11-19T01:48:34.197Z,-1.95
2022-11-19T01:51:13.530Z,-1.83
2022-11-19T01:53:40.867Z,-1.75
2022-11-19T01:56:08.962Z,-1.75
2022-11-19T01:58:39.790Z,-1.79
2022-11-19T02:01:08.137Z,-1.76
2022-11-19T02:03:35.203Z,-1.80
2022-11-19T02:06:03.209Z,-1.97
2022-11-19T02:08:36.934Z,-1.76
2022-11-19T02:11:12.757Z,-1.84
2022-11-19T02:13:46.065Z,-1.88
2022-11-19T02:16:31.559Z,-1.86
2022-11-19T02:19:17.050Z,-1.92
2022-11-19T02:22:18.142Z,-1.88
2022-11-19T02:24:54.926Z,-1.95
2022-11-19T02:27:30.318Z,-1.90
2022-11-19T02:30:34.788Z,-1.99
2022-11-19T02:33:05.913Z,-1.82
2022-11-19T02:35:40.398Z,-1.87
2022-11-19T02:38:27.630Z,-1.95
2022-11-19T02:41:23.064Z,-2.00
2022-11-19T02:44:18.074Z,-2.08
2022-11-19T02:46:48.852Z,-1.92
2022-11-19T02:49:19.297Z,-1.92
2022-11-19T02:51:47.538Z,-2.04
2022-11-19T02:54:17.382Z,-1.90
2022-11-19T02:56:55.450Z,-1.97
2022-11-19T02:59:49.525Z,-2.05
2022-11-19T03:02:35.971Z,-1.93
2022-11-19T03:05:06.334Z,-2.03
2022-11-19T03:07:33.160Z,-2.01
2022-11-19T03:10:03.253Z,-1.99
2022-11-19T03:12:49.396Z,-2.09
2022-11-19T03:15:58.081Z,-2.11
2022-11-19T03:18:43.738Z,-2.32
2022-11-19T03:21:21.408Z,-2.09
2022-11-19T03:23:57.088Z,-2.08
2022-11-19T03:26:42.231Z,-2.04
2022-11-19T03:29:12.285Z,-2.01
2022-11-19T03:31:41.657Z,-1.99
2022-11-19T03:34:14.626Z,-2.10
2022-11-19T03:36:43.541Z,-2.13
2022-11-19T03:39:13.930Z,-2.09
2022-11-19T03:41:42.256Z,-2.17
2022-11-19T03:44:18.308Z,-2.15
2022-11-19T03:46:47.482Z,-2.17
2022-11-19T03:49:15.677Z,-2.37
2022-11-19T03:51:49.875Z,-2.13
2022-11-19T03:54:16.674Z,-2.09
2022-11-19T03:56:45.553Z,-2.31
2022-11-19T03:59:13.105Z,-2.15
2022-11-19T04:01:39.986Z,-2.15
2022-11-19T04:04:25.306Z,-2.16
2022-11-19T04:06:51.736Z,-2.11
2022-11-19T04:09:18.459Z,-2.15
2022-11-19T04:14:10.935Z,-2.12
2022-11-19T04:16:37.426Z,-2.18
2022-11-19T04:19:03.820Z,-2.31
2022-11-19T04:21:30.254Z,-2.21
2022-11-19T04:23:56.825Z,-2.13
2022-11-19T04:26:23.232Z,-2.12
2022-11-19T04:28:49.626Z,-2.25
2022-11-19T04:31:17.995Z,-2.18
2022-11-19T04:33:44.696Z,-2.18
2022-11-19T04:36:11.106Z,-2.23
2022-11-19T04:38:37.460Z,-2.19
2022-11-19T04:41:04.137Z,-2.24
2022-11-19T04:43:30.539Z,-2.26
2022-11-19T04:45:57.022Z,-2.26
2022-11-19T04:48:23.422Z,-2.26
2022-11-19T04:50:49.815Z,-2.39
2022-11-19T04:53:16.242Z,-2.35
2022-11-19T04:55:42.803Z,-2.38
2022-11-19T04:58:09.299Z,-2.27
2022-11-19T05:00:35.726Z,-2.39
2022-11-19T05:03:02.184Z,-2.26
2022-11-19T05:05:28.596Z,-2.27
2022-11-19T05:07:55.122Z,-2.28
2022-11-19T05:10:21.626Z,-2.34
2022-11-19T05:12:48.033Z,-2.40
2022-11-19T05:15:14.442Z,-2.42
2022-11-19T05:17:40.865Z,-2.37
2022-11-19T05:20:08.176Z,-2.39
2022-11-19T05:22:34.692Z,-2.36
2022-11-19T05:25:01.068Z,-2.42
2022-11-19T05:27:27.474Z,-2.37
2022-11-19T05:29:53.881Z,-2.58
2022-11-19T05:32:20.350Z,-2.36
2022-11-19T05:34:46.808Z,-2.37
2022-11-19T05:37:13.178Z,-2.41
2022-11-19T05:39:39.566Z,-2.37
2022-11-19T05:42:06.064Z,-2.35
2022-11-19T05:44:32.437Z,-2.59
2022-11-19T05:46:59.818Z,-2.44
2022-11-19T05:49:26.467Z,-2.44
2022-11-19T05:51:52.868Z,-2.44
2022-11-19T05:54:19.383Z,-2.46
2022-11-19T05:56:45.955Z,-2.49
2022-11-19T05:59:12.345Z,-2.62
2022-11-19T06:01:38.734Z,-2.52
2022-11-19T06:04:05.218Z,-2.54
2022-11-19T06:06:31.620Z,-2.57
2022-11-19T06:08:58.000Z,-2.50
2022-11-19T06:11:42.914Z,-2.52
2022-11-19T06:14:09.518Z,-2.56
2022-11-19T06:16:35.936Z,-2.58
2022-11-19T06:19:02.334Z,-2.61
2022-11-19T06:21:28.762Z,-2.53
2022-11-19T06:23:55.186Z,-2.49
2022-11-19T06:26:27.171Z,-2.55
2022-11-19T06:28:54.648Z,-2.53
2022-11-19T06:31:21.625Z,-2.52
2022-11-19T06:33:48.844Z,-2.55
2022-11-19T06:36:15.352Z,-2.51
2022-11-19T06:38:42.009Z,-2.55
2022-11-19T06:41:08.416Z,-2.58
2022-11-19T06:43:34.823Z,-2.55
2022-11-19T06:46:01.199Z,-2.45
2022-11-19T06:48:27.766Z,-2.48
2022-11-19T06:50:54.186Z,-2.37
2022-11-19T06:53:20.628Z,-2.52
2022-11-19T06:55:47.095Z,-2.51
2022-11-19T06:58:14.669Z,-2.50
2022-11-19T07:00:44.095Z,-2.52
2022-11-19T07:03:10.528Z,-2.54
2022-11-19T07:05:36.901Z,-2.57
2022-11-19T07:08:05.962Z,-2.49
2022-11-19T07:10:37.540Z,-2.60
2022-11-19T07:13:03.990Z,-2.54
2022-11-19T07:15:30.362Z,-2.56
2022-11-19T07:17:58.001Z,-2.48
2022-11-19T07:20:25.554Z,-2.55
2022-11-19T07:22:57.702Z,-2.68
2022-11-19T07:25:27.095Z,-2.49
2022-11-19T07:27:53.667Z,-2.53
2022-11-19T07:30:20.232Z,-2.42
2022-11-19T07:32:46.673Z,-2.43
2022-11-19T07:35:13.126Z,-2.46
2022-11-19T07:37:39.506Z,-2.38
2022-11-19T07:40:06.464Z,-2.46
2022-11-19T07:42:50.796Z,-2.42
2022-11-19T07:45:19.459Z,-2.49
2022-11-19T07:47:46.117Z,-2.65
2022-11-19T07:50:12.997Z,-2.36
2022-11-19T07:52:39.750Z,-2.39
2022-11-19T07:55:06.866Z,-2.55
2022-11-19T07:57:33.516Z,-2.53
2022-11-19T08:00:00.006Z,-2.44
2022-11-19T08:02:26.552Z,-2.50
2022-11-19T08:04:53.069Z,-2.44
2022-11-19T08:07:19.557Z,-2.42
2022-11-19T08:09:46.032Z,-2.46
2022-11-19T08:12:12.402Z,-2.49
2022-11-19T08:14:38.775Z,-2.34
2022-11-19T08:17:23.756Z,-2.35
2022-11-19T08:19:50.175Z,-2.21
2022-11-19T08:22:16.530Z,-2.37
2022-11-19T08:24:42.915Z,-2.27
2022-11-19T08:27:09.282Z,-2.35
2022-11-19T08:29:35.716Z,-2.32
2022-11-19T08:32:02.122Z,-2.24
2022-11-19T08:34:28.737Z,-2.22
2022-11-19T08:36:55.157Z,-2.10
2022-11-19T08:39:21.651Z,-2.16
2022-11-19T08:42:06.791Z,-2.09
2022-11-19T08:44:33.174Z,-2.10
2022-11-19T08:46:59.546Z,-2.13
2022-11-19T08:49:25.975Z,-1.98
2022-11-19T08:51:52.617Z,-1.92
2022-11-19T08:54:19.427Z,-1.87
2022-11-19T08:56:46.107Z,-1.87
2022-11-19T08:59:12.529Z,-2.04
2022-11-19T09:01:39.317Z,-1.98
2022-11-19T09:04:05.782Z,-2.01
2022-11-19T09:06:35.295Z,-1.98
2022-11-19T09:09:03.308Z,-1.97
2022-11-19T09:11:29.845Z,-2.09
2022-11-19T09:13:59.061Z,-2.03
2022-11-19T09:16:25.629Z,-2.02
2022-11-19T09:18:52.463Z,-2.13
2022-11-19T09:21:19.031Z,-2.08
2022-11-19T09:23:45.402Z,-2.18
2022-11-19T09:26:17.573Z,-2.06
2022-11-19T09:28:44.733Z,-2.08
2022-11-19T09:31:14.659Z,-2.06
2022-11-19T09:33:42.432Z,-2.01
2022-11-19T09:36:10.839Z,-1.80
2022-11-19T09:38:37.559Z,-1.40
2022-11-19T09:41:25.512Z,-0.57
2022-11-19T09:44:30.417Z,-0.35
2022-11-19T09:47:29.067Z,-0.17
2022-11-19T09:50:22.376Z,0.23
2022-11-19T09:52:56.950Z,0.13
2022-11-19T09:55:30.511Z,-0.27
2022-11-19T09:57:58.767Z,0.44
2022-11-19T10:00:29.117Z,0.87
2022-11-19T10:02:57.915Z,0.49
2022-11-19T10:05:44.792Z,0.56
2022-11-19T10:08:41.918Z,0.50
2022-11-19T10:11:33.076Z,0.78
2022-11-19T10:14:21.687Z,0.72
2022-11-19T10:17:03.313Z,0.99
2022-11-19T10:20:08.620Z,1.01
2022-11-19T10:22:40.962Z,1.98
2022-11-19T10:25:21.721Z,0.53
2022-11-19T10:27:55.161Z,0.48
2022-11-19T10:30:25.042Z,1.44
2022-11-19T10:33:04.053Z,0.71
2022-11-19T10:35:36.626Z,1.89
2022-11-19T10:38:07.425Z,1.66
2022-11-19T10:40:42.825Z,1.74
2022-11-19T10:43:30.421Z,1.42
2022-11-19T10:46:00.222Z,1.73
2022-11-19T10:48:59.202Z,1.91
2022-11-19T10:51:33.479Z,2.31
2022-11-19T10:54:04.964Z,2.44
2022-11-19T10:56:39.958Z,2.21
2022-11-19T10:59:18.609Z,2.03
2022-11-19T11:01:48.896Z,1.79
2022-11-19T11:04:19.637Z,2.20
2022-11-19T11:07:03.598Z,2.04
2022-11-19T11:09:30.021Z,2.18
2022-11-19T11:12:31.571Z,1.72
2022-11-19T11:15:13.694Z,2.01
2022-11-19T11:17:42.555Z,1.95
2022-11-19T11:20:18.275Z,2.28
2022-11-19T11:22:48.889Z,2.37
2022-11-19T11:25:25.255Z,2.72
2022-11-19T11:28:05.315Z,3.30
2022-11-19T11:30:31.898Z,2.13
2022-11-19T11:33:17.583Z,2.24
2022-11-19T11:35:45.667Z,3.17
2022-11-19T11:38:13.528Z,3.51
2022-11-19T11:40:40.049Z,3.20
2022-11-19T11:43:06.601Z,2.40
2022-11-19T11:45:35.699Z,3.38
2022-11-19T11:48:19.077Z,4.32
2022-11-19T11:50:46.468Z,2.91
2022-11-19T11:53:16.286Z,2.84
2022-11-19T11:55:43.605Z,2.94
2022-11-19T11:58:32.120Z,2.81
2022-11-19T12:01:21.092Z,2.46
2022-11-19T12:03:55.727Z,3.42
2022-11-19T12:06:33.021Z,2.86
2022-11-19T12:09:18.492Z,3.42
2022-11-19T12:12:11.045Z,2.98
2022-11-19T12:14:53.320Z,2.25
2022-11-19T12:17:28.848Z,2.37
2022-11-19T12:20:26.405Z,2.01
2022-11-19T12:23:22.959Z,2.34
2022-11-19T12:26:15.395Z,1.61
2022-11-19T12:29:02.196Z,3.29
2022-11-19T12:31:50.520Z,2.43
2022-11-19T12:34:42.171Z,3.39
2022-11-19T12:37:23.244Z,3.53
2022-11-19T12:39:58.641Z,2.32
2022-11-19T12:42:41.007Z,1.46
2022-11-19T12:45:22.838Z,2.95
2022-11-19T12:48:10.675Z,1.89
2022-11-19T12:50:51.543Z,2.74
2022-11-19T12:53:45.050Z,2.28
2022-11-19T12:56:30.481Z,2.45
2022-11-19T12:59:05.898Z,2.20
2022-11-19T13:01:36.788Z,2.48
2022-11-19T13:04:18.373Z,2.17
2022-11-19T13:06:53.561Z,1.32
2022-11-19T13:10:18.670Z,2.45
2022-11-19T13:12:50.206Z,2.89
2022-11-19T13:15:26.357Z,1.23
2022-11-19T13:17:56.420Z,1.93
2022-11-19T13:20:28.539Z,1.79
2022-11-19T13:22:59.673Z,1.86
2022-11-19T13:25:31.810Z,2.69
2022-11-19T13:28:02.561Z,1.38
2022-11-19T13:30:32.074Z,1.84
2022-11-19T13:33:24.784Z,1.24
2022-11-19T13:36:07.302Z,1.45
2022-11-19T13:38:48.720Z,1.48
2022-11-19T13:42:04.344Z,0.83
2022-11-19T13:44:41.443Z,0.73
2022-11-19T13:47:15.086Z,0.80
2022-11-19T13:50:07.639Z,0.24
2022-11-19T13:52:39.375Z,0.17
2022-11-19T13:55:23.093Z,0.26
2022-11-19T13:57:49.886Z,-0.15
2022-11-19T14:00:28.595Z,0.21
2022-11-19T14:03:20.341Z,-0.09
2022-11-19T14:06:12.387Z,-0.22
2022-11-19T14:08:46.622Z,-0.25
2022-11-19T14:11:22.096Z,-0.33
2022-11-19T14:14:32.111Z,-0.43
2022-11-19T14:17:47.434Z,-0.39
2022-11-19T14:21:07.735Z,-0.61
2022-11-19T14:24:05.695Z,-0.58
2022-11-19T14:26:40.960Z,-0.63
2022-11-19T14:29:27.280Z,-1.06
2022-11-19T14:32:18.538Z,-0.93
2022-11-19T14:35:09.625Z,-1.10
2022-11-19T14:37:45.532Z,-0.98
2022-11-19T14:40:17.831Z,-1.22
2022-11-19T14:43:18.296Z,-0.88
2022-11-19T14:46:10.857Z,-1.11
2022-11-19T14:48:40.278Z,-1.02
2022-11-19T14:51:32.729Z,-0.97
2022-11-19T14:54:31.540Z,-1.29
2022-11-19T14:57:06.014Z,-1.26
2022-11-19T14:59:34.729Z,-1.27
2022-11-19T15:02:10.485Z,-1.48
2022-11-19T15:04:41.979Z,-1.46
2022-11-19T15:07:16.141Z,-1.33
2022-11-19T15:10:04.378Z,-1.47
2022-11-19T15:12:42.974Z,-1.70
2022-11-19T15:15:41.361Z,-1.69
2022-11-19T15:18:26.562Z,-1.71
2022-11-19T15:20:56.169Z,-1.64
2022-11-19T15:23:56.045Z,-1.79
2022-11-19T15:26:37.716Z,-1.81
2022-11-19T15:29:15.270Z,-1.92
2022-11-19T15:32:23.617Z,-1.94
2022-11-19T15:35:18.346Z,-2.00
2022-11-19T15:38:18.497Z,-1.97
2022-11-19T15:40:49.507Z,-1.83
2022-11-19T15:43:22.420Z,-1.83
2022-11-19T15:46:07.421Z,-1.76
2022-11-19T15:48:56.136Z,-1.82
2022-11-19T15:51:23.325Z,-1.64
2022-11-19T15:54:00.514Z,-2.06
2022-11-19T15:56:31.970Z,-2.14
2022-11-19T15:58:59.569Z,-2.24
2022-11-19T16:01:26.270Z,-2.33
2022-11-19T16:03:53.863Z,-2.03
2022-11-19T16:06:25.166Z,-2.43
2022-11-19T16:08:54.415Z,-2.46
2022-11-19T16:11:42.284Z,-2.47
2022-11-19T16:14:38.569Z,-2.40
2022-11-19T16:17:43.027Z,-2.45
2022-11-19T16:20:09.741Z,-2.48
2022-11-19T16:23:07.999Z,-2.60
2022-11-19T16:25:37.679Z,-2.55
2022-11-19T16:28:10.123Z,-2.60
2022-11-19T16:30:50.327Z,-2.65
2022-11-19T16:33:19.072Z,-2.37
2022-11-19T16:35:51.252Z,-2.18
2022-11-19T16:38:28.650Z,-2.55
2022-11-19T16:41:14.254Z,-2.49
2022-11-19T16:43:44.685Z,-2.50
2022-11-19T16:46:18.243Z,-2.30
2022-11-19T16:48:50.850Z,-2.30
2022-11-19T16:51:38.609Z,-2.55
2022-11-19T16:54:10.629Z,-2.44
2022-11-19T16:56:43.999Z,-2.71
2022-11-19T16:59:19.763Z,-2.80
2022-11-19T17:01:52.516Z,-2.55
2022-11-19T17:04:19.682Z,-2.68
2022-11-19T17:06:47.263Z,-2.92
2022-11-19T17:09:31.022Z,-3.08
2022-11-19T17:12:15.941Z,-3.21
2022-11-19T17:15:30.448Z,-3.00
2022-11-19T17:18:15.512Z,-3.30
2022-11-19T17:20:44.814Z,-3.04
2022-11-19T17:23:16.110Z,-3.37
2022-11-19T17:25:46.476Z,-3.52
2022-11-19T17:28:19.697Z,-3.52
2022-11-19T17:30:49.442Z,-3.40
2022-11-19T17:33:17.863Z,-3.46
2022-11-19T17:35:46.549Z,-3.66
2022-11-19T17:38:27.712Z,-3.78
2022-11-19T17:40:57.143Z,-3.81
2022-11-19T17:43:44.844Z,-3.91
2022-11-19T17:46:11.364Z,-3.90
2022-11-19T17:48:40.948Z,-4.13
2022-11-19T17:51:11.470Z,-4.06
2022-11-19T17:53:37.832Z,-4.01
2022-11-19T17:56:04.767Z,-3.97
2022-11-19T17:58:31.493Z,-4.03
2022-11-19T18:00:57.869Z,-4.21
2022-11-19T18:03:24.242Z,-4.07
2022-11-19T18:05:50.761Z,-4.06
2022-11-19T18:08:17.370Z,-4.15
2022-11-19T18:10:46.368Z,-4.01
2022-11-19T18:13:16.570Z,-4.26
2022-11-19T18:15:42.977Z,-4.34
2022-11-19T18:18:09.444Z,-4.03
2022-11-19T18:20:35.899Z,-3.80
2022-11-19T18:23:02.339Z,-4.03
2022-11-19T18:25:28.758Z,-4.21
2022-11-19T18:27:55.308Z,-4.43
2022-11-19T18:30:22.114Z,-4.35
2022-11-19T18:32:48.586Z,-4.31
2022-11-19T18:35:18.560Z,-4.44
2022-11-19T18:37:45.673Z,-4.40
2022-11-19T18:40:13.776Z,-4.46
2022-11-19T18:43:00.508Z,-4.54
2022-11-19T18:45:27.576Z,-4.64
2022-11-19T18:47:54.002Z,-4.60
2022-11-19T18:50:24.351Z,-4.62
2022-11-19T18:52:53.212Z,-4.73
2022-11-19T18:55:19.601Z,-5.23
2022-11-19T18:57:46.104Z,-4.86
2022-11-19T19:00:13.333Z,-4.94
2022-11-19T19:02:39.786Z,-4.92
2022-11-19T19:05:06.600Z,-4.89
2022-11-19T19:07:33.173Z,-4.99
2022-11-19T19:09:59.623Z,-5.04
2022-11-19T19:12:28.947Z,-4.96
2022-11-19T19:14:57.076Z,-5.06
2022-11-19T19:17:26.802Z,-5.09
2022-11-19T19:19:53.860Z,-5.21
2022-11-19T19:22:20.691Z,-5.31
2022-11-19T19:24:48.343Z,-5.54
2022-11-19T19:27:18.397Z,-5.47
2022-11-19T19:29:49.193Z,-5.48
2022-11-19T19:32:17.145Z,-5.34
2022-11-19T19:34:43.522Z,-5.48
2022-11-19T19:37:09.930Z,-5.57
2022-11-19T19:39:36.375Z,-5.49
2022-11-19T19:42:02.792Z,-5.53
2022-11-19T19:44:29.230Z,-5.59
2022-11-19T19:46:55.622Z,-5.64
2022-11-19T19:49:22.529Z,-5.66
2022-11-19T19:51:49.166Z,-5.67
2022-11-19T19:54:15.925Z,-5.58
2022-11-19T19:56:42.831Z,-5.69
2022-11-19T19:59:12.352Z,-5.55
2022-11-19T20:01:38.830Z,-5.48
2022-11-19T20:04:07.031Z,-5.61
2022-11-19T20:06:35.365Z,-5.57
2022-11-19T20:09:08.219Z,-5.57
2022-11-19T20:11:48.157Z,-5.51
2022-11-19T20:14:14.605Z,-5.65
2022-11-19T20:16:41.613Z,-5.62
2022-11-19T20:19:14.049Z,-5.63
2022-11-19T20:21:40.875Z,-5.84
2022-11-19T20:24:12.104Z,-5.82
2022-11-19T20:26:39.734Z,-5.99
2022-11-19T20:29:06.999Z,-5.83
2022-11-19T20:31:34.562Z,-5.86
2022-11-19T20:34:03.520Z,-6.04
2022-11-19T20:36:31.435Z,-6.19
2022-11-19T20:38:58.795Z,-6.10
2022-11-19T20:41:45.465Z,-6.00
2022-11-19T20:44:19.966Z,-6.04
2022-11-19T20:46:54.096Z,-6.11
2022-11-19T20:49:23.834Z,-6.15
2022-11-19T20:51:51.140Z,-6.14
2022-11-19T20:54:18.977Z,-6.15
2022-11-19T20:56:45.398Z,-6.12
2022-11-19T20:59:12.668Z,-6.28
2022-11-19T21:01:39.413Z,-6.23
2022-11-19T21:04:06.150Z,-5.99
2022-11-19T21:06:33.089Z,-6.08
2022-11-19T21:08:59.593Z,-6.09
2022-11-19T21:11:26.448Z,-6.14
2022-11-19T21:13:53.001Z,-6.02
2022-11-19T21:16:21.911Z,-6.05
2022-11-19T21:18:48.403Z,-5.88
2022-11-19T21:21:17.029Z,-6.04
2022-11-19T21:23:43.643Z,-6.08
2022-11-19T21:26:19.685Z,-6.36
2022-11-19T21:28:51.883Z,-6.45
2022-11-19T21:31:20.624Z,-6.30
2022-11-19T21:33:47.075Z,-6.28
2022-11-19T21:36:13.615Z,-6.30
2022-11-19T21:38:40.551Z,-6.29
2022-11-19T21:41:07.694Z,-6.27
2022-11-19T21:43:35.181Z,-6.30
2022-11-19T21:46:01.862Z,-6.31
2022-11-19T21:48:28.452Z,-6.23
2022-11-19T21:50:54.956Z,-6.14
2022-11-19T21:53:21.878Z,-6.30
2022-11-19T21:55:49.279Z,-6.30
2022-11-19T21:58:16.106Z,-6.34
2022-11-19T22:00:43.917Z,-6.49
2022-11-19T22:03:10.568Z,-6.43
2022-11-19T22:05:36.942Z,-6.58
2022-11-19T22:08:03.456Z,-6.53
2022-11-19T22:10:29.890Z,-6.51
2022-11-19T22:12:59.477Z,-6.77
2022-11-19T22:15:27.097Z,-6.68
2022-11-19T22:17:53.579Z,-6.74
2022-11-19T22:20:20.375Z,-6.82
2022-11-19T22:22:46.999Z,-6.74
2022-11-19T22:25:14.111Z,-6.52
2022-11-19T22:27:41.704Z,-6.77
2022-11-19T22:30:10.029Z,-6.61
2022-11-19T22:32:36.565Z,-6.60
2022-11-19T22:35:03.303Z,-6.71
2022-11-19T22:37:29.713Z,-6.25
2022-11-19T22:39:56.299Z,-6.20
2022-11-19T22:42:22.664Z,-6.09
2022-11-19T22:47:25.043Z,-6.43
2022-11-19T22:49:51.985Z,-6.68
2022-11-19T22:52:18.521Z,-6.47
2022-11-19T22:54:44.954Z,-6.37
2022-11-19T22:57:11.632Z,-6.46
2022-11-19T22:59:38.126Z,-6.56
2022-11-19T23:02:04.532Z,-6.56
2022-11-19T23:04:30.948Z,-6.69
2022-11-19T23:06:57.421Z,-6.43
2022-11-19T23:09:24.088Z,-6.20
2022-11-19T23:12:09.464Z,-6.35
2022-11-19T23:14:36.072Z,-6.57
2022-11-19T23:17:02.517Z,-6.67
2022-11-19T23:19:29.052Z,-6.85
2022-11-19T23:21:55.444Z,-6.76
2022-11-19T23:24:21.890Z,-6.81
2022-11-19T23:26:48.338Z,-6.94
2022-11-19T23:29:14.861Z,-6.98
2022-11-19T23:31:41.460Z,-6.74
2022-11-19T23:34:08.370Z,-6.99
2022-11-19T23:36:42.743Z,-6.88
2022-11-19T23:39:15.173Z,-7.06
2022-11-19T23:41:41.995Z,-7.02
2022-11-19T23:44:08.882Z,-7.14
2022-11-19T23:46:36.003Z,-7.08
2022-11-19T23:49:03.743Z,-7.11
2022-11-19T23:51:40.023Z,-7.35
2022-11-19T23:54:06.647Z,-7.37
2022-11-19T23:56:36.057Z,-7.47
2022-11-19T23:59:04.794Z,-7.45
